sensor_id;sensor_type;location;lat;lon;timestamp;pressure;altitude;pressure_sealevel;temperature;humidity
8543;BME280;4309;42.658;23.380;2023-02-04T00:00:28;94576.81;;;1.93;83.20
8543;BME280;4309;42.658;23.380;2023-02-04T00:01:00;94569.91;;;1.93;82.47
8543;BME280;4309;42.658;23.380;2023-02-04T00:01:30;94561.53;;;1.91;82.28
8543;BME280;4309;42.658;23.380;2023-02-04T00:02:03;94567.31;;;1.93;83.42
8543;BME280;4309;42.658;23.380;2023-02-04T00:02:34;94573.44;;;1.92;83.44
8543;BME280;4309;42.658;23.380;2023-02-04T00:03:05;94570.69;;;1.94;83.49
8543;BME280;4309;42.658;23.380;2023-02-04T00:03:36;94572.19;;;1.88;82.46
8543;BME280;4309;42.658;23.380;2023-02-04T00:04:07;94567.97;;;1.87;82.81
8543;BME280;4309;42.658;23.380;2023-02-04T00:04:38;94569.78;;;1.87;82.56
8543;BME280;4309;42.658;23.380;2023-02-04T00:05:09;94562.81;;;1.87;83.62
8543;BME280;4309;42.658;23.380;2023-02-04T00:05:41;94567.31;;;1.93;82.76
8543;BME280;4309;42.658;23.380;2023-02-04T00:06:12;94562.34;;;1.92;82.38
8543;BME280;4309;42.658;23.380;2023-02-04T00:06:43;94570.38;;;1.89;83.57
8543;BME280;4309;42.658;23.380;2023-02-04T00:07:14;94571.38;;;1.88;82.68
8543;BME280;4309;42.658;23.380;2023-02-04T00:07:47;94566.38;;;1.86;83.71
8543;BME280;4309;42.658;23.380;2023-02-04T00:08:18;94558.19;;;1.83;83.32
8543;BME280;4309;42.658;23.380;2023-02-04T00:08:50;94569.31;;;1.83;83.22
8543;BME280;4309;42.658;23.380;2023-02-04T00:09:21;94562.06;;;1.79;83.72
8543;BME280;4309;42.658;23.380;2023-02-04T00:09:51;94562.56;;;1.82;84.47
8543;BME280;4309;42.658;23.380;2023-02-04T00:10:23;94557.84;;;1.86;84.52
8543;BME280;4309;42.658;23.380;2023-02-04T00:10:55;94551.09;;;1.85;83.57
8543;BME280;4309;42.658;23.380;2023-02-04T00:11:26;94545.59;;;1.88;83.55
8543;BME280;4309;42.658;23.380;2023-02-04T00:11:57;94551.38;;;1.90;83.71
8543;BME280;4309;42.658;23.380;2023-02-04T00:12:28;94551.94;;;1.77;83.84
8543;BME280;4309;42.658;23.380;2023-02-04T00:12:59;94553.97;;;1.90;83.93
8543;BME280;4309;42.658;23.380;2023-02-04T00:13:31;94556.38;;;1.91;84.41
8543;BME280;4309;42.658;23.380;2023-02-04T00:14:01;94558.31;;;1.89;83.83
8543;BME280;4309;42.658;23.380;2023-02-04T00:14:32;94560.44;;;1.78;83.63
8543;BME280;4309;42.658;23.380;2023-02-04T00:15:03;94552.44;;;1.73;83.84
8543;BME280;4309;42.658;23.380;2023-02-04T00:15:35;94560.19;;;1.73;84.96
8543;BME280;4309;42.658;23.380;2023-02-04T00:16:06;94550.53;;;1.67;85.17
8543;BME280;4309;42.658;23.380;2023-02-04T00:16:37;94546.50;;;1.72;84.48
8543;BME280;4309;42.658;23.380;2023-02-04T00:17:08;94554.81;;;1.82;84.32
8543;BME280;4309;42.658;23.380;2023-02-04T00:17:42;94546.88;;;1.92;84.49
8543;BME280;4309;42.658;23.380;2023-02-04T00:18:13;94546.97;;;1.98;84.70
8543;BME280;4309;42.658;23.380;2023-02-04T00:18:44;94536.22;;;1.95;84.24
8543;BME280;4309;42.658;23.380;2023-02-04T00:19:15;94543.47;;;1.91;84.30
8543;BME280;4309;42.658;23.380;2023-02-04T00:19:47;94543.59;;;1.98;84.47
8543;BME280;4309;42.658;23.380;2023-02-04T00:20:18;94541.19;;;1.96;84.71
8543;BME280;4309;42.658;23.380;2023-02-04T00:20:49;94541.97;;;1.97;84.11
8543;BME280;4309;42.658;23.380;2023-02-04T00:21:20;94544.28;;;1.92;83.62
8543;BME280;4309;42.658;23.380;2023-02-04T00:21:51;94539.75;;;1.94;84.40
8543;BME280;4309;42.658;23.380;2023-02-04T00:22:22;94540.03;;;1.99;84.23
8543;BME280;4309;42.658;23.380;2023-02-04T00:22:55;94527.78;;;2.01;84.27
8543;BME280;4309;42.658;23.380;2023-02-04T00:23:26;94540.28;;;2.12;84.27
8543;BME280;4309;42.658;23.380;2023-02-04T00:23:57;94530.56;;;2.14;83.77
8543;BME280;4309;42.658;23.380;2023-02-04T00:24:27;94539.47;;;2.11;83.33
8543;BME280;4309;42.658;23.380;2023-02-04T00:24:59;94533.91;;;2.00;83.54
8543;BME280;4309;42.658;23.380;2023-02-04T00:25:30;94543.94;;;1.95;83.87
8543;BME280;4309;42.658;23.380;2023-02-04T00:26:02;94539.75;;;1.94;83.51
8543;BME280;4309;42.658;23.380;2023-02-04T00:26:34;94530.59;;;1.91;83.38
8543;BME280;4309;42.658;23.380;2023-02-04T00:27:05;94540.09;;;1.91;84.56
8543;BME280;4309;42.658;23.380;2023-02-04T00:27:36;94543.78;;;1.96;84.05
8543;BME280;4309;42.658;23.380;2023-02-04T00:28:07;94542.66;;;1.91;84.01
8543;BME280;4309;42.658;23.380;2023-02-04T00:28:38;94544.00;;;1.87;84.87
8543;BME280;4309;42.658;23.380;2023-02-04T00:29:09;94546.69;;;1.93;84.14
8543;BME280;4309;42.658;23.380;2023-02-04T00:29:40;94538.66;;;1.88;84.66
8543;BME280;4309;42.658;23.380;2023-02-04T00:30:13;94540.59;;;1.86;84.54
8543;BME280;4309;42.658;23.380;2023-02-04T00:30:43;94533.84;;;1.85;84.30
8543;BME280;4309;42.658;23.380;2023-02-04T00:31:14;94533.34;;;1.90;85.18
8543;BME280;4309;42.658;23.380;2023-02-04T00:31:46;94534.03;;;1.84;84.09
8543;BME280;4309;42.658;23.380;2023-02-04T00:32:16;94536.25;;;1.87;85.03
8543;BME280;4309;42.658;23.380;2023-02-04T00:32:47;94535.41;;;1.94;84.54
8543;BME280;4309;42.658;23.380;2023-02-04T00:33:20;94526.47;;;2.05;84.93
8543;BME280;4309;42.658;23.380;2023-02-04T00:33:51;94522.59;;;2.09;84.51
8543;BME280;4309;42.658;23.380;2023-02-04T00:34:22;94529.22;;;2.03;83.32
8543;BME280;4309;42.658;23.380;2023-02-04T00:34:53;94532.78;;;2.02;83.59
8543;BME280;4309;42.658;23.380;2023-02-04T00:35:24;94538.97;;;1.93;84.07
8543;BME280;4309;42.658;23.380;2023-02-04T00:35:55;94536.22;;;1.95;84.38
8543;BME280;4309;42.658;23.380;2023-02-04T00:36:26;94537.50;;;1.91;84.62
8543;BME280;4309;42.658;23.380;2023-02-04T00:36:56;94538.16;;;1.93;84.78
8543;BME280;4309;42.658;23.380;2023-02-04T00:37:28;94528.00;;;1.91;84.11
8543;BME280;4309;42.658;23.380;2023-02-04T00:37:59;94526.84;;;1.94;84.04
8543;BME280;4309;42.658;23.380;2023-02-04T00:38:29;94538.16;;;1.93;83.74
8543;BME280;4309;42.658;23.380;2023-02-04T00:39:01;94540.09;;;1.91;83.78
8543;BME280;4309;42.658;23.380;2023-02-04T00:39:32;94539.44;;;1.89;84.66
8543;BME280;4309;42.658;23.380;2023-02-04T00:40:02;94533.97;;;1.92;83.86
8543;BME280;4309;42.658;23.380;2023-02-04T00:40:34;94535.22;;;1.96;84.71
8543;BME280;4309;42.658;23.380;2023-02-04T00:41:06;94527.50;;;1.96;83.59
8543;BME280;4309;42.658;23.380;2023-02-04T00:41:37;94537.81;;;1.96;83.62
8543;BME280;4309;42.658;23.380;2023-02-04T00:42:09;94532.19;;;1.92;83.81
8543;BME280;4309;42.658;23.380;2023-02-04T00:42:39;94538.53;;;1.82;83.92
8543;BME280;4309;42.658;23.380;2023-02-04T00:43:10;94532.75;;;1.80;84.49
8543;BME280;4309;42.658;23.380;2023-02-04T00:43:42;94533.91;;;1.77;84.65
8543;BME280;4309;42.658;23.380;2023-02-04T00:44:12;94533.94;;;1.69;84.80
8543;BME280;4309;42.658;23.380;2023-02-04T00:44:43;94533.09;;;1.77;85.37
8543;BME280;4309;42.658;23.380;2023-02-04T00:45:14;94539.06;;;1.77;85.47
8543;BME280;4309;42.658;23.380;2023-02-04T00:45:45;94525.41;;;1.69;85.22
8543;BME280;4309;42.658;23.380;2023-02-04T00:46:16;94536.00;;;1.74;85.79
8543;BME280;4309;42.658;23.380;2023-02-04T00:46:47;94541.28;;;1.80;85.10
8543;BME280;4309;42.658;23.380;2023-02-04T00:47:19;94536.31;;;1.79;85.88
8543;BME280;4309;42.658;23.380;2023-02-04T00:47:49;94530.50;;;1.77;85.28
8543;BME280;4309;42.658;23.380;2023-02-04T00:48:20;94527.75;;;1.78;84.75
8543;BME280;4309;42.658;23.380;2023-02-04T00:48:52;94534.69;;;1.78;85.75
8543;BME280;4309;42.658;23.380;2023-02-04T00:49:23;94531.78;;;1.81;84.91
8543;BME280;4309;42.658;23.380;2023-02-04T00:49:53;94529.81;;;1.83;85.56
8543;BME280;4309;42.658;23.380;2023-02-04T00:50:25;94526.00;;;1.79;85.83
8543;BME280;4309;42.658;23.380;2023-02-04T00:50:56;94529.88;;;1.75;85.49
8543;BME280;4309;42.658;23.380;2023-02-04T00:51:26;94526.69;;;1.73;85.63
8543;BME280;4309;42.658;23.380;2023-02-04T00:51:58;94536.00;;;1.74;85.33
8543;BME280;4309;42.658;23.380;2023-02-04T00:52:29;94530.63;;;1.83;85.96
8543;BME280;4309;42.658;23.380;2023-02-04T00:52:59;94523.88;;;1.82;84.75
8543;BME280;4309;42.658;23.380;2023-02-04T00:53:31;94524.16;;;1.87;84.87
8543;BME280;4309;42.658;23.380;2023-02-04T00:54:02;94522.91;;;1.83;84.44
8543;BME280;4309;42.658;23.380;2023-02-04T00:54:32;94525.00;;;1.80;85.56
8543;BME280;4309;42.658;23.380;2023-02-04T00:55:05;94523.41;;;1.79;85.46
8543;BME280;4309;42.658;23.380;2023-02-04T00:55:37;94524.19;;;1.79;85.15
8543;BME280;4309;42.658;23.380;2023-02-04T00:56:09;94521.31;;;1.82;85.24
8543;BME280;4309;42.658;23.380;2023-02-04T00:56:42;94523.41;;;1.79;84.70
8543;BME280;4309;42.658;23.380;2023-02-04T00:57:13;94522.59;;;1.78;85.06
8543;BME280;4309;42.658;23.380;2023-02-04T00:57:44;94523.59;;;1.77;85.50
8543;BME280;4309;42.658;23.380;2023-02-04T00:58:17;94523.59;;;1.77;85.81
8543;BME280;4309;42.658;23.380;2023-02-04T00:58:47;94523.47;;;1.71;85.27
8543;BME280;4309;42.658;23.380;2023-02-04T00:59:18;94527.81;;;1.70;85.27
8543;BME280;4309;42.658;23.380;2023-02-04T00:59:50;94522.81;;;1.69;85.91
8543;BME280;4309;42.658;23.380;2023-02-04T01:00:21;94518.53;;;1.61;85.82
8543;BME280;4309;42.658;23.380;2023-02-04T01:00:51;94516.47;;;1.56;86.02
8543;BME280;4309;42.658;23.380;2023-02-04T01:01:23;94515.50;;;1.49;86.16
8543;BME280;4309;42.658;23.380;2023-02-04T01:01:54;94509.13;;;1.45;86.67
8543;BME280;4309;42.658;23.380;2023-02-04T01:02:25;94518.09;;;1.49;86.45
8543;BME280;4309;42.658;23.380;2023-02-04T01:02:56;94516.19;;;1.43;86.40
8543;BME280;4309;42.658;23.380;2023-02-04T01:03:27;94518.47;;;1.38;87.63
8543;BME280;4309;42.658;23.380;2023-02-04T01:03:58;94519.28;;;1.39;87.12
8543;BME280;4309;42.658;23.380;2023-02-04T01:04:29;94521.22;;;1.37;87.78
8543;BME280;4309;42.658;23.380;2023-02-04T01:05:00;94510.41;;;1.41;87.52
8543;BME280;4309;42.658;23.380;2023-02-04T01:05:31;94511.22;;;1.42;88.02
8543;BME280;4309;42.658;23.380;2023-02-04T01:06:02;94513.75;;;1.50;87.54
8543;BME280;4309;42.658;23.380;2023-02-04T01:06:33;94511.03;;;1.43;87.31
8543;BME280;4309;42.658;23.380;2023-02-04T01:07:04;94508.63;;;1.42;87.78
8543;BME280;4309;42.658;23.380;2023-02-04T01:07:36;94507.66;;;1.43;88.21
8543;BME280;4309;42.658;23.380;2023-02-04T01:08:07;94505.56;;;1.46;88.02
8543;BME280;4309;42.658;23.380;2023-02-04T01:08:38;94504.59;;;1.47;87.64
8543;BME280;4309;42.658;23.380;2023-02-04T01:09:09;94497.31;;;1.51;87.80
8543;BME280;4309;42.658;23.380;2023-02-04T01:09:41;94498.28;;;1.50;88.07
8543;BME280;4309;42.658;23.380;2023-02-04T01:10:11;94492.47;;;1.56;87.89
8543;BME280;4309;42.658;23.380;2023-02-04T01:10:42;94487.13;;;1.57;87.64
8543;BME280;4309;42.658;23.380;2023-02-04T01:11:15;94496.84;;;1.55;87.74
8543;BME280;4309;42.658;23.380;2023-02-04T01:11:46;94490.53;;;1.58;87.00
8543;BME280;4309;42.658;23.380;2023-02-04T01:12:17;94492.00;;;1.52;86.94
8543;BME280;4309;42.658;23.380;2023-02-04T01:12:48;94494.91;;;1.49;87.81
8543;BME280;4309;42.658;23.380;2023-02-04T01:13:19;94498.63;;;1.47;88.16
8543;BME280;4309;42.658;23.380;2023-02-04T01:13:50;94494.91;;;1.49;87.12
8543;BME280;4309;42.658;23.380;2023-02-04T01:14:21;94497.34;;;1.43;88.38
8543;BME280;4309;42.658;23.380;2023-02-04T01:14:52;94493.31;;;1.48;88.18
8543;BME280;4309;42.658;23.380;2023-02-04T01:15:23;94490.63;;;1.42;88.49
8543;BME280;4309;42.658;23.380;2023-02-04T01:15:55;94481.75;;;1.44;87.60
8543;BME280;4309;42.658;23.380;2023-02-04T01:16:25;94488.81;;;1.50;87.44
8543;BME280;4309;42.658;23.380;2023-02-04T01:16:56;94488.81;;;1.50;87.92
8543;BME280;4309;42.658;23.380;2023-02-04T01:17:27;94479.13;;;1.52;87.63
8543;BME280;4309;42.658;23.380;2023-02-04T01:17:59;94475.47;;;1.47;87.38
8543;BME280;4309;42.658;23.380;2023-02-04T01:18:30;94476.72;;;1.51;87.82
8543;BME280;4309;42.658;23.380;2023-02-04T01:19:00;94473.97;;;1.52;87.25
8543;BME280;4309;42.658;23.380;2023-02-04T01:19:32;94481.06;;;1.50;86.94
8543;BME280;4309;42.658;23.380;2023-02-04T01:20:03;94478.34;;;1.52;87.24
8543;BME280;4309;42.658;23.380;2023-02-04T01:20:34;94483.31;;;1.53;88.13
8543;BME280;4309;42.658;23.380;2023-02-04T01:21:05;94486.84;;;1.52;88.08
8543;BME280;4309;42.658;23.380;2023-02-04T01:21:36;94481.47;;;1.39;88.06
8543;BME280;4309;42.658;23.380;2023-02-04T01:22:07;94476.28;;;1.47;86.88
8543;BME280;4309;42.658;23.380;2023-02-04T01:22:39;94476.53;;;1.52;87.75
8543;BME280;4309;42.658;23.380;2023-02-04T01:23:10;94481.50;;;1.54;86.98
8543;BME280;4309;42.658;23.380;2023-02-04T01:23:43;94463.34;;;1.55;87.21
8543;BME280;4309;42.658;23.380;2023-02-04T01:24:15;94473.91;;;1.60;86.41
8543;BME280;4309;42.658;23.380;2023-02-04T01:24:46;94470.22;;;1.63;87.45
8543;BME280;4309;42.658;23.380;2023-02-04T01:25:18;94471.16;;;1.62;86.33
8543;BME280;4309;42.658;23.380;2023-02-04T01:25:49;94473.47;;;1.57;87.39
8543;BME280;4309;42.658;23.380;2023-02-04T01:26:22;94467.97;;;1.60;86.70
8543;BME280;4309;42.658;23.380;2023-02-04T01:26:53;94467.81;;;1.62;86.76
8543;BME280;4309;42.658;23.380;2023-02-04T01:27:24;94471.84;;;1.56;86.73
8543;BME280;4309;42.658;23.380;2023-02-04T01:27:55;94469.44;;;1.54;87.23
8543;BME280;4309;42.658;23.380;2023-02-04T01:28:26;94459.78;;;1.56;87.20
8543;BME280;4309;42.658;23.380;2023-02-04T01:28:57;94463.34;;;1.55;86.20
8543;BME280;4309;42.658;23.380;2023-02-04T01:29:28;94462.81;;;1.60;87.22
8543;BME280;4309;42.658;23.380;2023-02-04T01:29:59;94470.72;;;1.58;86.58
8543;BME280;4309;42.658;23.380;2023-02-04T01:30:30;94462.00;;;1.59;86.58
8543;BME280;4309;42.658;23.380;2023-02-04T01:31:00;94474.91;;;1.59;87.10
8543;BME280;4309;42.658;23.380;2023-02-04T01:31:32;94469.75;;;1.59;86.33
8543;BME280;4309;42.658;23.380;2023-02-04T01:32:03;94471.50;;;1.59;86.89
8543;BME280;4309;42.658;23.380;2023-02-04T01:32:34;94462.78;;;1.68;86.10
8543;BME280;4309;42.658;23.380;2023-02-04T01:33:04;94460.34;;;1.67;86.85
8543;BME280;4309;42.658;23.380;2023-02-04T01:33:36;94452.34;;;1.62;86.88
8543;BME280;4309;42.658;23.380;2023-02-04T01:34:07;94456.63;;;1.69;86.80
8543;BME280;4309;42.658;23.380;2023-02-04T01:34:38;94450.28;;;1.57;86.27
8543;BME280;4309;42.658;23.380;2023-02-04T01:35:10;94449.53;;;1.48;86.98
8543;BME280;4309;42.658;23.380;2023-02-04T01:35:40;94453.91;;;1.40;87.18
8543;BME280;4309;42.658;23.380;2023-02-04T01:36:11;94450.09;;;1.36;86.45
8543;BME280;4309;42.658;23.380;2023-02-04T01:36:43;94448.66;;;1.33;87.85
8543;BME280;4309;42.658;23.380;2023-02-04T01:37:13;94441.88;;;1.32;88.06
8543;BME280;4309;42.658;23.380;2023-02-04T01:37:44;94447.50;;;1.36;87.82
8543;BME280;4309;42.658;23.380;2023-02-04T01:38:16;94453.31;;;1.38;87.99
8543;BME280;4309;42.658;23.380;2023-02-04T01:38:47;94454.44;;;1.35;88.30
8543;BME280;4309;42.658;23.380;2023-02-04T01:39:17;94452.53;;;1.29;87.09
8543;BME280;4309;42.658;23.380;2023-02-04T01:39:48;94458.78;;;1.35;87.39
8543;BME280;4309;42.658;23.380;2023-02-04T01:40:20;94449.63;;;1.32;87.37
8543;BME280;4309;42.658;23.380;2023-02-04T01:40:51;94454.09;;;1.38;87.50
8543;BME280;4309;42.658;23.380;2023-02-04T01:41:23;94454.09;;;1.38;87.20
8543;BME280;4309;42.658;23.380;2023-02-04T01:41:56;94444.06;;;1.43;87.84
8543;BME280;4309;42.658;23.380;2023-02-04T01:42:27;94445.97;;;1.49;86.87
8543;BME280;4309;42.658;23.380;2023-02-04T01:42:58;94445.69;;;1.44;87.24
8543;BME280;4309;42.658;23.380;2023-02-04T01:43:30;94442.31;;;1.44;87.14
8543;BME280;4309;42.658;23.380;2023-02-04T01:44:01;94443.13;;;1.44;87.45
8543;BME280;4309;42.658;23.380;2023-02-04T01:44:32;94441.16;;;1.46;87.37
8543;BME280;4309;42.658;23.380;2023-02-04T01:45:04;94442.16;;;1.45;86.81
8543;BME280;4309;42.658;23.380;2023-02-04T01:45:35;94428.97;;;1.40;87.59
8543;BME280;4309;42.658;23.380;2023-02-04T01:46:06;94431.84;;;1.45;86.95
8543;BME280;4309;42.658;23.380;2023-02-04T01:46:38;94426.16;;;1.50;86.69
8543;BME280;4309;42.658;23.380;2023-02-04T01:47:09;94434.88;;;1.49;87.51
8543;BME280;4309;42.658;23.380;2023-02-04T01:47:40;94437.13;;;1.52;87.07
8543;BME280;4309;42.658;23.380;2023-02-04T01:48:11;94430.56;;;1.41;86.12
8543;BME280;4309;42.658;23.380;2023-02-04T01:48:49;94433.59;;;1.45;86.39
8543;BME280;4309;42.658;23.380;2023-02-04T01:49:20;94428.31;;;1.38;86.59
8543;BME280;4309;42.658;23.380;2023-02-04T01:49:53;94427.50;;;1.46;86.25
8543;BME280;4309;42.658;23.380;2023-02-04T01:50:25;94428.91;;;1.48;87.49
8543;BME280;4309;42.658;23.380;2023-02-04T01:51:02;94425.34;;;1.49;86.14
8543;BME280;4309;42.658;23.380;2023-02-04T01:51:34;94431.16;;;1.51;86.59
8543;BME280;4309;42.658;23.380;2023-02-04T01:52:06;94435.50;;;1.51;86.68
8543;BME280;4309;42.658;23.380;2023-02-04T01:52:40;94434.72;;;1.50;86.89
8543;BME280;4309;42.658;23.380;2023-02-04T01:53:11;94437.13;;;1.52;86.69
8543;BME280;4309;42.658;23.380;2023-02-04T01:53:43;94432.31;;;1.49;86.00
8543;BME280;4309;42.658;23.380;2023-02-04T01:54:14;94433.69;;;1.59;85.67
8543;BME280;4309;42.658;23.380;2023-02-04T01:54:46;94429.50;;;1.58;85.82
8543;BME280;4309;42.658;23.380;2023-02-04T01:55:27;94429.34;;;1.60;85.24
8543;BME280;4309;42.658;23.380;2023-02-04T01:56:00;94426.41;;;1.63;84.72
8543;BME280;4309;42.658;23.380;2023-02-04T01:56:32;94430.94;;;1.61;84.79
8543;BME280;4309;42.658;23.380;2023-02-04T01:57:05;94428.81;;;1.65;84.64
8543;BME280;4309;42.658;23.380;2023-02-04T01:57:40;94426.25;;;1.65;85.34
8543;BME280;4309;42.658;23.380;2023-02-04T01:58:11;94430.75;;;1.63;84.65
8543;BME280;4309;42.658;23.380;2023-02-04T01:58:42;94436.38;;;1.66;84.22
8543;BME280;4309;42.658;23.380;2023-02-04T01:59:15;94432.28;;;1.72;84.21
8543;BME280;4309;42.658;23.380;2023-02-04T01:59:46;94429.53;;;1.73;83.81
8543;BME280;4309;42.658;23.380;2023-02-04T02:00:23;94427.59;;;1.75;84.75
8543;BME280;4309;42.658;23.380;2023-02-04T02:00:55;94423.78;;;1.71;83.58
8543;BME280;4309;42.658;23.380;2023-02-04T02:01:35;94425.91;;;1.68;83.38
8543;BME280;4309;42.658;23.380;2023-02-04T02:02:38;94430.06;;;1.69;84.02
8543;BME280;4309;42.658;23.380;2023-02-04T02:03:10;94422.22;;;1.62;83.40
8543;BME280;4309;42.658;23.380;2023-02-04T02:03:41;94423.84;;;1.63;83.92
8543;BME280;4309;42.658;23.380;2023-02-04T02:04:14;94424.19;;;1.60;83.67
8543;BME280;4309;42.658;23.380;2023-02-04T02:04:46;94428.06;;;1.56;83.53
8543;BME280;4309;42.658;23.380;2023-02-04T02:05:18;94419.56;;;1.55;83.61
8543;BME280;4309;42.658;23.380;2023-02-04T02:05:52;94428.41;;;1.53;84.58
8543;BME280;4309;42.658;23.380;2023-02-04T02:06:24;94420.69;;;1.53;84.77
8543;BME280;4309;42.658;23.380;2023-02-04T02:06:57;94420.84;;;1.51;85.05
8543;BME280;4309;42.658;23.380;2023-02-04T02:07:29;94420.31;;;1.56;84.46
8543;BME280;4309;42.658;23.380;2023-02-04T02:08:01;94407.91;;;1.59;84.31
8543;BME280;4309;42.658;23.380;2023-02-04T02:08:34;94400.00;;;1.61;84.41
8543;BME280;4309;42.658;23.380;2023-02-04T02:09:05;94410.16;;;1.63;84.49
8543;BME280;4309;42.658;23.380;2023-02-04T02:09:35;94410.19;;;1.54;84.53
8543;BME280;4309;42.658;23.380;2023-02-04T02:10:09;94414.09;;;1.50;83.94
8543;BME280;4309;42.658;23.380;2023-02-04T02:10:42;94418.75;;;1.55;83.61
8543;BME280;4309;42.658;23.380;2023-02-04T02:11:14;94424.06;;;1.53;83.93
8543;BME280;4309;42.658;23.380;2023-02-04T02:11:46;94423.25;;;1.53;84.56
8543;BME280;4309;42.658;23.380;2023-02-04T02:12:16;94426.28;;;1.56;83.68
8543;BME280;4309;42.658;23.380;2023-02-04T02:12:47;94426.28;;;1.56;83.71
8543;BME280;4309;42.658;23.380;2023-02-04T02:13:19;94425.31;;;1.57;84.29
8543;BME280;4309;42.658;23.380;2023-02-04T02:13:50;94428.69;;;1.58;83.82
8543;BME280;4309;42.658;23.380;2023-02-04T02:14:21;94428.00;;;1.64;84.55
8543;BME280;4309;42.658;23.380;2023-02-04T02:14:53;94427.03;;;1.65;84.47
8543;BME280;4309;42.658;23.380;2023-02-04T02:15:24;94421.56;;;1.68;84.38
8543;BME280;4309;42.658;23.380;2023-02-04T02:15:55;94427.84;;;1.66;83.26
8543;BME280;4309;42.658;23.380;2023-02-04T02:16:27;94420.38;;;1.71;83.75
8543;BME280;4309;42.658;23.380;2023-02-04T02:16:57;94410.91;;;1.71;83.16
8543;BME280;4309;42.658;23.380;2023-02-04T02:17:28;94413.47;;;1.71;84.07
8543;BME280;4309;42.658;23.380;2023-02-04T02:18:00;94407.84;;;1.68;83.87
8543;BME280;4309;42.658;23.380;2023-02-04T02:18:32;94407.84;;;1.68;83.40
8543;BME280;4309;42.658;23.380;2023-02-04T02:19:04;94394.63;;;1.71;83.81
8543;BME280;4309;42.658;23.380;2023-02-04T02:19:37;94400.25;;;1.74;83.17
8543;BME280;4309;42.658;23.380;2023-02-04T02:20:09;94403.59;;;1.75;83.87
8543;BME280;4309;42.658;23.380;2023-02-04T02:20:42;94403.34;;;1.70;82.85
8543;BME280;4309;42.658;23.380;2023-02-04T02:21:15;94412.66;;;1.71;83.85
8543;BME280;4309;42.658;23.380;2023-02-04T02:21:53;94408.16;;;1.73;83.61
8543;BME280;4309;42.658;23.380;2023-02-04T02:22:29;94407.00;;;1.75;83.89
8543;BME280;4309;42.658;23.380;2023-02-04T02:23:13;94403.41;;;1.76;83.38
8543;BME280;4309;42.658;23.380;2023-02-04T02:23:49;94395.44;;;1.71;82.57
8543;BME280;4309;42.658;23.380;2023-02-04T02:24:26;94402.69;;;1.68;82.62
8543;BME280;4309;42.658;23.380;2023-02-04T02:24:57;94403.84;;;1.65;83.70
8543;BME280;4309;42.658;23.380;2023-02-04T02:25:28;94400.47;;;1.65;82.83
8543;BME280;4309;42.658;23.380;2023-02-04T02:25:59;94405.00;;;1.63;82.90
8543;BME280;4309;42.658;23.380;2023-02-04T02:26:30;94402.53;;;1.69;83.08
8543;BME280;4309;42.658;23.380;2023-02-04T02:27:04;94404.66;;;1.66;82.68
8543;BME280;4309;42.658;23.380;2023-02-04T02:27:37;94386.25;;;1.69;83.35
8543;BME280;4309;42.658;23.380;2023-02-04T02:28:10;94387.53;;;1.73;83.32
8543;BME280;4309;42.658;23.380;2023-02-04T02:28:43;94393.47;;;1.73;82.93
8543;BME280;4309;42.658;23.380;2023-02-04T02:29:17;94380.59;;;1.73;83.06
8543;BME280;4309;42.658;23.380;2023-02-04T02:29:48;94381.22;;;1.75;82.98
8543;BME280;4309;42.658;23.380;2023-02-04T02:30:20;94382.63;;;1.78;83.43
8543;BME280;4309;42.658;23.380;2023-02-04T02:30:52;94380.50;;;1.81;82.61
8543;BME280;4309;42.658;23.380;2023-02-04T02:31:23;94378.47;;;1.77;83.14
8543;BME280;4309;42.658;23.380;2023-02-04T02:31:54;94376.88;;;1.76;82.96
8543;BME280;4309;42.658;23.380;2023-02-04T02:32:26;94376.59;;;1.71;81.97
8543;BME280;4309;42.658;23.380;2023-02-04T02:32:58;94376.75;;;1.69;82.17
8543;BME280;4309;42.658;23.380;2023-02-04T02:33:29;94370.16;;;1.67;82.82
8543;BME280;4309;42.658;23.380;2023-02-04T02:33:59;94374.72;;;1.65;82.32
8543;BME280;4309;42.658;23.380;2023-02-04T02:34:32;94369.22;;;1.68;82.71
8543;BME280;4309;42.658;23.380;2023-02-04T02:35:03;94363.06;;;1.69;82.30
8543;BME280;4309;42.658;23.380;2023-02-04T02:35:34;94355.69;;;1.66;83.13
8543;BME280;4309;42.658;23.380;2023-02-04T02:36:06;94350.19;;;1.69;82.99
8543;BME280;4309;42.658;23.380;2023-02-04T02:36:37;94346.47;;;1.71;82.50
8543;BME280;4309;42.658;23.380;2023-02-04T02:37:08;94340.69;;;1.69;83.07
8543;BME280;4309;42.658;23.380;2023-02-04T02:37:39;94341.03;;;1.66;81.81
8543;BME280;4309;42.658;23.380;2023-02-04T02:38:11;94337.19;;;1.62;82.90
8543;BME280;4309;42.658;23.380;2023-02-04T02:38:42;94336.31;;;1.55;82.73
8543;BME280;4309;42.658;23.380;2023-02-04T02:39:14;94336.13;;;1.56;82.82
8543;BME280;4309;42.658;23.380;2023-02-04T02:39:48;94335.78;;;1.59;82.67
8543;BME280;4309;42.658;23.380;2023-02-04T02:40:19;94331.16;;;1.55;81.94
8543;BME280;4309;42.658;23.380;2023-02-04T02:40:50;94331.16;;;1.55;82.42
8543;BME280;4309;42.658;23.380;2023-02-04T02:41:23;94329.69;;;1.52;82.41
8543;BME280;4309;42.658;23.380;2023-02-04T02:41:54;94334.78;;;1.46;82.99
8543;BME280;4309;42.658;23.380;2023-02-04T02:42:25;94322.72;;;1.38;82.70
8543;BME280;4309;42.658;23.380;2023-02-04T02:42:57;94324.34;;;1.39;82.61
8543;BME280;4309;42.658;23.380;2023-02-04T02:43:28;94327.38;;;1.43;82.68
8543;BME280;4309;42.658;23.380;2023-02-04T02:43:59;94325.25;;;1.46;82.27
8543;BME280;4309;42.658;23.380;2023-02-04T02:44:32;94329.69;;;1.52;82.47
8543;BME280;4309;42.658;23.380;2023-02-04T02:45:06;94328.47;;;1.48;82.21
8543;BME280;4309;42.658;23.380;2023-02-04T02:45:37;94327.31;;;1.51;82.90
8543;BME280;4309;42.658;23.380;2023-02-04T02:46:09;94319.50;;;1.59;82.69
8543;BME280;4309;42.658;23.380;2023-02-04T02:46:40;94322.25;;;1.57;82.10
8543;BME280;4309;42.658;23.380;2023-02-04T02:47:12;94313.66;;;1.50;82.38
8543;BME280;4309;42.658;23.380;2023-02-04T02:47:44;94321.72;;;1.47;83.42
8543;BME280;4309;42.658;23.380;2023-02-04T02:48:16;94314.59;;;1.49;82.30
8543;BME280;4309;42.658;23.380;2023-02-04T02:48:47;94311.06;;;1.50;82.42
8543;BME280;4309;42.658;23.380;2023-02-04T02:49:18;94313.13;;;1.55;82.71
8543;BME280;4309;42.658;23.380;2023-02-04T02:49:53;94304.94;;;1.51;82.10
8543;BME280;4309;42.658;23.380;2023-02-04T02:50:26;94305.22;;;1.56;82.07
8543;BME280;4309;42.658;23.380;2023-02-04T02:50:58;94307.69;;;1.50;82.56
8543;BME280;4309;42.658;23.380;2023-02-04T02:51:30;94309.19;;;1.44;82.55
8543;BME280;4309;42.658;23.380;2023-02-04T02:52:00;94311.78;;;1.44;83.51
8543;BME280;4309;42.658;23.380;2023-02-04T02:52:31;94313.41;;;1.37;82.91
8543;BME280;4309;42.658;23.380;2023-02-04T02:53:02;94316.56;;;1.47;83.08